sensor_id;sensor_type;location;lat;lon;timestamp;pressure;altitude;pressure_sealevel;temperature
70389;BMP280;58659;49.050;8.530;2023-05-10T00:01:20;98462.00;;;13.02
70389;BMP280;58659;49.050;8.530;2023-05-10T00:03:45;98458.66;;;12.98
70389;BMP280;58659;49.050;8.530;2023-05-10T00:06:10;98466.53;;;12.98
70389;BMP280;58659;49.050;8.530;2023-05-10T00:08:36;98468.53;;;12.90
70389;BMP280;58659;49.050;8.530;2023-05-10T00:11:01;98476.72;;;12.92
70389;BMP280;58659;49.050;8.530;2023-05-10T00:13:26;98466.31;;;12.89
70389;BMP280;58659;49.050;8.530;2023-05-10T00:15:52;98478.38;;;12.83
70389;BMP280;58659;49.050;8.530;2023-05-10T00:18:17;98477.28;;;12.80
70389;BMP280;58659;49.050;8.530;2023-05-10T00:20:42;98478.06;;;12.77
70389;BMP280;58659;49.050;8.530;2023-05-10T00:23:07;98470.94;;;12.78
70389;BMP280;58659;49.050;8.530;2023-05-10T00:25:33;98472.81;;;12.77
70389;BMP280;58659;49.050;8.530;2023-05-10T00:27:58;98452.28;;;12.76
70389;BMP280;58659;49.050;8.530;2023-05-10T00:30:23;98468.34;;;12.78
70389;BMP280;58659;49.050;8.530;2023-05-10T00:32:49;98472.19;;;12.70
70389;BMP280;58659;49.050;8.530;2023-05-10T00:35:15;98471.84;;;12.68
70389;BMP280;58659;49.050;8.530;2023-05-10T00:37:40;98479.69;;;12.68
70389;BMP280;58659;49.050;8.530;2023-05-10T00:40:06;98471.84;;;12.68
70389;BMP280;58659;49.050;8.530;2023-05-10T00:42:32;98458.31;;;12.73
70389;BMP280;58659;49.050;8.530;2023-05-10T00:44:57;98462.75;;;12.76
70389;BMP280;58659;49.050;8.530;2023-05-10T00:47:23;98462.69;;;12.79
70389;BMP280;58659;49.050;8.530;2023-05-10T00:49:48;98473.16;;;12.79
70389;BMP280;58659;49.050;8.530;2023-05-10T00:52:14;98475.44;;;12.77
70389;BMP280;58659;49.050;8.530;2023-05-10T00:54:40;98483.72;;;12.76
70389;BMP280;58659;49.050;8.530;2023-05-10T00:57:05;98490.47;;;12.73
70389;BMP280;58659;49.050;8.530;2023-05-10T00:59:31;98487.47;;;12.75
70389;BMP280;58659;49.050;8.530;2023-05-10T01:01:57;98483.75;;;12.72
70389;BMP280;58659;49.050;8.530;2023-05-10T01:04:22;98485.63;;;12.72
70389;BMP280;58659;49.050;8.530;2023-05-10T01:06:51;98498.41;;;12.70
70389;BMP280;58659;49.050;8.530;2023-05-10T01:12:50;98485.72;;;12.65
70389;BMP280;58659;49.050;8.530;2023-05-10T01:15:17;98491.31;;;12.67
70389;BMP280;58659;49.050;8.530;2023-05-10T01:17:44;98492.09;;;12.64
70389;BMP280;58659;49.050;8.530;2023-05-10T01:20:11;98490.16;;;12.68
70389;BMP280;58659;49.050;8.530;2023-05-10T01:23:10;98490.88;;;12.72
70389;BMP280;58659;49.050;8.530;2023-05-10T01:34:35;98506.25;;;12.70
70389;BMP280;58659;49.050;8.530;2023-05-10T01:37:15;98492.78;;;12.68
70389;BMP280;58659;49.050;8.530;2023-05-10T01:39:49;98515.72;;;12.60
70389;BMP280;58659;49.050;8.530;2023-05-10T01:42:29;98513.13;;;12.56
70389;BMP280;58659;49.050;8.530;2023-05-10T01:47:35;98510.19;;;12.54
70389;BMP280;58659;49.050;8.530;2023-05-10T01:50:04;98518.44;;;12.53
70389;BMP280;58659;49.050;8.530;2023-05-10T01:52:38;98515.06;;;12.52
70389;BMP280;58659;49.050;8.530;2023-05-10T01:55:08;98513.19;;;12.53
70389;BMP280;58659;49.050;8.530;2023-05-10T01:57:35;98506.00;;;12.57
70389;BMP280;58659;49.050;8.530;2023-05-10T02:00:03;98506.00;;;12.57
70389;BMP280;58659;49.050;8.530;2023-05-10T02:02:30;98494.78;;;12.60
70389;BMP280;58659;49.050;8.530;2023-05-10T02:04:58;98483.84;;;12.65
70389;BMP280;58659;49.050;8.530;2023-05-10T02:07:26;98495.03;;;12.69
70389;BMP280;58659;49.050;8.530;2023-05-10T02:09:53;98499.06;;;12.74
70389;BMP280;58659;49.050;8.530;2023-05-10T02:12:20;98503.97;;;12.72
70389;BMP280;58659;49.050;8.530;2023-05-10T02:14:46;98505.41;;;12.76
70389;BMP280;58659;49.050;8.530;2023-05-10T02:17:13;98500.84;;;12.80
70389;BMP280;58659;49.050;8.530;2023-05-10T02:19:40;98516.19;;;12.82
70389;BMP280;58659;49.050;8.530;2023-05-10T02:22:07;98519.19;;;12.80
70389;BMP280;58659;49.050;8.530;2023-05-10T02:24:34;98510.88;;;12.85
70389;BMP280;58659;49.050;8.530;2023-05-10T02:27:02;98530.78;;;12.83
70389;BMP280;58659;49.050;8.530;2023-05-10T02:29:28;98533.75;;;12.85
70389;BMP280;58659;49.050;8.530;2023-05-10T02:31:55;98541.16;;;12.90
70389;BMP280;58659;49.050;8.530;2023-05-10T02:34:23;98552.81;;;12.89
70389;BMP280;58659;49.050;8.530;2023-05-10T02:36:50;98540.13;;;12.84
70389;BMP280;58659;49.050;8.530;2023-05-10T02:39:17;98550.56;;;12.87
70389;BMP280;58659;49.050;8.530;2023-05-10T02:41:45;98556.56;;;12.88
70389;BMP280;58659;49.050;8.530;2023-05-10T02:44:17;98558.38;;;12.91
70389;BMP280;58659;49.050;8.530;2023-05-10T02:46:43;98549.47;;;12.85
70389;BMP280;58659;49.050;8.530;2023-05-10T02:49:09;98557.28;;;12.88
70389;BMP280;58659;49.050;8.530;2023-05-10T02:51:35;98549.44;;;12.88
70389;BMP280;58659;49.050;8.530;2023-05-10T02:54:09;98556.94;;;12.86
70389;BMP280;58659;49.050;8.530;2023-05-10T02:56:36;98562.44;;;12.95
70389;BMP280;58659;49.050;8.530;2023-05-10T02:59:04;98569.47;;;13.02
70389;BMP280;58659;49.050;8.530;2023-05-10T03:01:30;98574.00;;;12.98
70389;BMP280;58659;49.050;8.530;2023-05-10T03:03:55;98582.97;;;12.97
70389;BMP280;58659;49.050;8.530;2023-05-10T03:06:21;98595.41;;;12.93
70389;BMP280;58659;49.050;8.530;2023-05-10T03:08:46;98607.75;;;12.96
70389;BMP280;58659;49.050;8.530;2023-05-10T03:14:16;98616.75;;;12.95
70389;BMP280;58659;49.050;8.530;2023-05-10T03:16:47;98619.59;;;13.04
70389;BMP280;58659;49.050;8.530;2023-05-10T03:22:08;98636.97;;;12.94
70389;BMP280;58659;49.050;8.530;2023-05-10T03:24:35;98630.97;;;12.94
70389;BMP280;58659;49.050;8.530;2023-05-10T03:27:01;98647.75;;;13.00
70389;BMP280;58659;49.050;8.530;2023-05-10T03:29:29;98640.66;;;12.97
70389;BMP280;58659;49.050;8.530;2023-05-10T03:31:57;98647.38;;;12.98
70389;BMP280;58659;49.050;8.530;2023-05-10T03:34:23;98649.69;;;12.96
70389;BMP280;58659;49.050;8.530;2023-05-10T03:36:49;98651.56;;;12.92
70389;BMP280;58659;49.050;8.530;2023-05-10T03:39:14;98665.84;;;12.91
70389;BMP280;58659;49.050;8.530;2023-05-10T03:41:40;98672.63;;;12.88
70389;BMP280;58659;49.050;8.530;2023-05-10T03:44:05;98672.25;;;12.86
70389;BMP280;58659;49.050;8.530;2023-05-10T03:46:31;98676.75;;;12.86
70389;BMP280;58659;49.050;8.530;2023-05-10T03:48:56;98680.88;;;12.83
70389;BMP280;58659;49.050;8.530;2023-05-10T03:51:21;98674.56;;;12.81
70389;BMP280;58659;49.050;8.530;2023-05-10T03:53:47;98667.06;;;12.79
70389;BMP280;58659;49.050;8.530;2023-05-10T03:56:12;98664.09;;;12.77
70389;BMP280;58659;49.050;8.530;2023-05-10T03:58:37;98660.03;;;12.76
70389;BMP280;58659;49.050;8.530;2023-05-10T04:01:03;98673.19;;;12.69
70389;BMP280;58659;49.050;8.530;2023-05-10T04:03:28;98660.47;;;12.68
70389;BMP280;58659;49.050;8.530;2023-05-10T04:06:00;98654.06;;;12.72
70389;BMP280;58659;49.050;8.530;2023-05-10T04:08:26;98652.53;;;12.75
70389;BMP280;58659;49.050;8.530;2023-05-10T04:10:51;98649.91;;;12.75
70389;BMP280;58659;49.050;8.530;2023-05-10T04:13:17;98660.38;;;12.78
70389;BMP280;58659;49.050;8.530;2023-05-10T04:15:42;98658.53;;;12.75
70389;BMP280;58659;49.050;8.530;2023-05-10T04:18:08;98673.16;;;12.73
70389;BMP280;58659;49.050;8.530;2023-05-10T04:20:34;98666.78;;;12.70
70389;BMP280;58659;49.050;8.530;2023-05-10T04:22:59;98676.16;;;12.71
70389;BMP280;58659;49.050;8.530;2023-05-10T04:25:24;98671.66;;;12.72
70389;BMP280;58659;49.050;8.530;2023-05-10T04:27:49;98667.97;;;12.66
70389;BMP280;58659;49.050;8.530;2023-05-10T04:30:15;98675.09;;;12.65
70389;BMP280;58659;49.050;8.530;2023-05-10T04:32:40;98669.47;;;12.67
70389;BMP280;58659;49.050;8.530;2023-05-10T04:35:06;98665.72;;;12.68
70389;BMP280;58659;49.050;8.530;2023-05-10T04:37:32;98660.50;;;12.64
70389;BMP280;58659;49.050;8.530;2023-05-10T04:40:01;98657.06;;;12.71
70389;BMP280;58659;49.050;8.530;2023-05-10T04:42:26;98649.94;;;12.71
70389;BMP280;58659;49.050;8.530;2023-05-10T04:44:51;98645.84;;;12.70
70389;BMP280;58659;49.050;8.530;2023-05-10T04:47:17;98654.41;;;12.74
70389;BMP280;58659;49.050;8.530;2023-05-10T04:49:42;98660.75;;;12.77
70389;BMP280;58659;49.050;8.530;2023-05-10T04:52:07;98663.72;;;12.79
70389;BMP280;58659;49.050;8.530;2023-05-10T04:54:32;98672.38;;;12.76
70389;BMP280;58659;49.050;8.530;2023-05-10T04:56:58;98679.78;;;12.81
70389;BMP280;58659;49.050;8.530;2023-05-10T04:59:23;98684.66;;;12.82
70389;BMP280;58659;49.050;8.530;2023-05-10T05:01:48;98676.34;;;12.87
70389;BMP280;58659;49.050;8.530;2023-05-10T05:04:14;98683.09;;;12.88
70389;BMP280;58659;49.050;8.530;2023-05-10T05:06:39;98689.09;;;12.85
70389;BMP280;58659;49.050;8.530;2023-05-10T05:09:05;98689.47;;;12.87
70389;BMP280;58659;49.050;8.530;2023-05-10T05:11:30;98689.50;;;12.84
70389;BMP280;58659;49.050;8.530;2023-05-10T05:13:55;98693.97;;;12.87
70389;BMP280;58659;49.050;8.530;2023-05-10T05:18:46;98700.22;;;12.96
70389;BMP280;58659;49.050;8.530;2023-05-10T05:21:19;98700.56;;;12.98
70389;BMP280;58659;49.050;8.530;2023-05-10T05:23:44;98691.50;;;13.06
70389;BMP280;58659;49.050;8.530;2023-05-10T05:26:09;98701.91;;;13.10
70389;BMP280;58659;49.050;8.530;2023-05-10T05:28:36;98705.22;;;13.18
70389;BMP280;58659;49.050;8.530;2023-05-10T05:31:03;98713.03;;;13.21
70389;BMP280;58659;49.050;8.530;2023-05-10T05:33:28;98713.81;;;13.18
70389;BMP280;58659;49.050;8.530;2023-05-10T05:35:54;98728.88;;;13.14
70389;BMP280;58659;49.050;8.530;2023-05-10T05:38:28;98736.75;;;13.14
70389;BMP280;58659;49.050;8.530;2023-05-10T05:40:53;98739.38;;;13.14
70389;BMP280;58659;49.050;8.530;2023-05-10T05:43:19;98727.31;;;13.17
70389;BMP280;58659;49.050;8.530;2023-05-10T05:45:44;98720.78;;;13.32
70389;BMP280;58659;49.050;8.530;2023-05-10T05:48:10;98744.50;;;13.21
70389;BMP280;58659;49.050;8.530;2023-05-10T05:50:35;98753.53;;;13.20
70389;BMP280;58659;49.050;8.530;2023-05-10T05:53:00;98771.44;;;13.25
70389;BMP280;58659;49.050;8.530;2023-05-10T05:55:26;98782.75;;;13.19
70389;BMP280;58659;49.050;8.530;2023-05-10T05:57:51;98779.00;;;13.20
70389;BMP280;58659;49.050;8.530;2023-05-10T06:00:16;98775.56;;;13.26
70389;BMP280;58659;49.050;8.530;2023-05-10T06:02:42;98786.81;;;13.23
70389;BMP280;58659;49.050;8.530;2023-05-10T06:05:08;98796.13;;;13.28
70389;BMP280;58659;49.050;8.530;2023-05-10T06:07:33;98797.22;;;13.30
70389;BMP280;58659;49.050;8.530;2023-05-10T06:09:59;98803.59;;;13.29
70389;BMP280;58659;49.050;8.530;2023-05-10T06:12:24;98802.75;;;13.39
70389;BMP280;58659;49.050;8.530;2023-05-10T06:14:49;98841.75;;;13.37
70389;BMP280;58659;49.050;8.530;2023-05-10T06:17:15;98897.94;;;13.40
70389;BMP280;58659;49.050;8.530;2023-05-10T06:19:40;98941.06;;;13.35
70389;BMP280;58659;49.050;8.530;2023-05-10T06:22:05;98948.19;;;13.38
70389;BMP280;58659;49.050;8.530;2023-05-10T06:24:31;98961.25;;;13.42
70389;BMP280;58659;49.050;8.530;2023-05-10T06:26:56;98977.66;;;13.49
70389;BMP280;58659;49.050;8.530;2023-05-10T06:29:21;98987.00;;;13.50
70389;BMP280;58659;49.050;8.530;2023-05-10T06:31:46;98988.50;;;13.51
70389;BMP280;58659;49.050;8.530;2023-05-10T06:34:12;98996.75;;;13.53
70389;BMP280;58659;49.050;8.530;2023-05-10T06:36:38;99018.84;;;13.56
70389;BMP280;58659;49.050;8.530;2023-05-10T06:39:04;99049.91;;;13.61
70389;BMP280;58659;49.050;8.530;2023-05-10T06:41:30;99037.16;;;13.67
70389;BMP280;58659;49.050;8.530;2023-05-10T06:43:55;99009.22;;;13.83
70389;BMP280;58659;49.050;8.530;2023-05-10T06:46:21;99041.47;;;13.84
70389;BMP280;58659;49.050;8.530;2023-05-10T06:48:46;99051.88;;;13.94
70389;BMP280;58659;49.050;8.530;2023-05-10T06:51:11;99069.00;;;14.06
70389;BMP280;58659;49.050;8.530;2023-05-10T06:53:37;99107.22;;;14.14
70389;BMP280;58659;49.050;8.530;2023-05-10T06:56:02;99129.66;;;14.18
70389;BMP280;58659;49.050;8.530;2023-05-10T06:58:31;99152.13;;;14.27
70389;BMP280;58659;49.050;8.530;2023-05-10T07:01:07;99157.00;;;14.25
70389;BMP280;58659;49.050;8.530;2023-05-10T07:03:32;99168.63;;;14.23
70389;BMP280;58659;49.050;8.530;2023-05-10T07:06:02;99161.44;;;14.31
70389;BMP280;58659;49.050;8.530;2023-05-10T07:08:29;99181.28;;;14.39
70389;BMP280;58659;49.050;8.530;2023-05-10T07:11:00;99191.69;;;14.46
70389;BMP280;58659;49.050;8.530;2023-05-10T07:13:25;99205.13;;;14.55
70389;BMP280;58659;49.050;8.530;2023-05-10T07:15:50;99243.34;;;14.63
70389;BMP280;58659;49.050;8.530;2023-05-10T07:18:16;99256.97;;;14.51
70389;BMP280;58659;49.050;8.530;2023-05-10T07:20:41;99284.84;;;14.45
70389;BMP280;58659;49.050;8.530;2023-05-10T07:23:06;99262.91;;;14.59
70389;BMP280;58659;49.050;8.530;2023-05-10T07:25:32;99259.78;;;14.71
70389;BMP280;58659;49.050;8.530;2023-05-10T07:27:57;99283.44;;;14.74
70389;BMP280;58659;49.050;8.530;2023-05-10T07:30:22;99283.13;;;14.65
70389;BMP280;58659;49.050;8.530;2023-05-10T07:32:48;99293.06;;;14.47
70389;BMP280;58659;49.050;8.530;2023-05-10T07:35:13;99329.88;;;14.40
70389;BMP280;58659;49.050;8.530;2023-05-10T07:37:38;99285.56;;;14.46
70389;BMP280;58659;49.050;8.530;2023-05-10T07:40:04;99294.66;;;14.34
70389;BMP280;58659;49.050;8.530;2023-05-10T07:42:29;99300.00;;;14.27
70389;BMP280;58659;49.050;8.530;2023-05-10T07:44:55;99297.75;;;14.26
70389;BMP280;58659;49.050;8.530;2023-05-10T07:47:20;99307.00;;;14.44
70389;BMP280;58659;49.050;8.530;2023-05-10T07:49:45;99323.78;;;14.54
70389;BMP280;58659;49.050;8.530;2023-05-10T07:52:11;99339.94;;;14.56
70389;BMP280;58659;49.050;8.530;2023-05-10T07:54:36;99370.34;;;14.53
70389;BMP280;58659;49.050;8.530;2023-05-10T07:57:03;99363.00;;;14.31
70389;BMP280;58659;49.050;8.530;2023-05-10T07:59:28;99339.41;;;14.27
70389;BMP280;58659;49.050;8.530;2023-05-10T08:01:53;99341.63;;;14.32
70389;BMP280;58659;49.050;8.530;2023-05-10T08:04:19;99356.66;;;14.28
70389;BMP280;58659;49.050;8.530;2023-05-10T08:06:44;99348.78;;;14.25
70389;BMP280;58659;49.050;8.530;2023-05-10T08:09:09;99335.16;;;14.44
70389;BMP280;58659;49.050;8.530;2023-05-10T08:11:35;99361.34;;;14.54
70389;BMP280;58659;49.050;8.530;2023-05-10T08:14:01;99360.19;;;14.62
70389;BMP280;58659;49.050;8.530;2023-05-10T08:16:26;99371.78;;;14.68
70389;BMP280;58659;49.050;8.530;2023-05-10T08:18:52;99375.47;;;14.71
70389;BMP280;58659;49.050;8.530;2023-05-10T08:21:20;99379.22;;;14.73
70389;BMP280;58659;49.050;8.530;2023-05-10T08:23:45;99390.44;;;14.81
70389;BMP280;58659;49.050;8.530;2023-05-10T08:26:13;99377.84;;;15.03
70389;BMP280;58659;49.050;8.530;2023-05-10T08:28:38;99400.78;;;15.40
70389;BMP280;58659;49.050;8.530;2023-05-10T08:31:04;99422.91;;;15.46
70389;BMP280;58659;49.050;8.530;2023-05-10T08:33:30;99447.81;;;15.71
70389;BMP280;58659;49.050;8.530;2023-05-10T08:35:55;99462.47;;;15.72
70389;BMP280;58659;49.050;8.530;2023-05-10T08:38:20;99447.16;;;15.98
70389;BMP280;58659;49.050;8.530;2023-05-10T08:40:46;99442.66;;;15.94
70389;BMP280;58659;49.050;8.530;2023-05-10T08:43:13;99451.19;;;15.75
70389;BMP280;58659;49.050;8.530;2023-05-10T08:45:42;99448.81;;;15.84
70389;BMP280;58659;49.050;8.530;2023-05-10T08:48:09;99474.75;;;15.52
70389;BMP280;58659;49.050;8.530;2023-05-10T08:50:36;99450.38;;;15.41
70389;BMP280;58659;49.050;8.530;2023-05-10T08:53:04;99446.53;;;15.12
70389;BMP280;58659;49.050;8.530;2023-05-10T08:55:30;99429.47;;;14.83
70389;BMP280;58659;49.050;8.530;2023-05-10T08:57:58;99412.44;;;14.50
70389;BMP280;58659;49.050;8.530;2023-05-10T09:00:23;99408.44;;;14.31
70389;BMP280;58659;49.050;8.530;2023-05-10T09:02:49;99386.69;;;14.27
70389;BMP280;58659;49.050;8.530;2023-05-10T09:05:15;99379.59;;;14.20
70389;BMP280;58659;49.050;8.530;2023-05-10T09:07:41;99381.47;;;14.20
70389;BMP280;58659;49.050;8.530;2023-05-10T09:10:08;99388.56;;;14.27
70389;BMP280;58659;49.050;8.530;2023-05-10T09:12:35;99355.63;;;14.15
70389;BMP280;58659;49.050;8.530;2023-05-10T09:15:01;99328.72;;;13.86
70389;BMP280;58659;49.050;8.530;2023-05-10T09:17:28;99304.09;;;13.66
70389;BMP280;58659;49.050;8.530;2023-05-10T09:19:58;99256.13;;;13.58
70389;BMP280;58659;49.050;8.530;2023-05-10T09:22:24;99237.38;;;13.56
70389;BMP280;58659;49.050;8.530;2023-05-10T09:25:06;99182.19;;;13.71
70389;BMP280;58659;49.050;8.530;2023-05-10T09:27:33;99204.63;;;13.82
70389;BMP280;58659;49.050;8.530;2023-05-10T09:29:58;99252.53;;;13.93
70389;BMP280;58659;49.050;8.530;2023-05-10T09:32:39;99254.25;;;14.21
70389;BMP280;58659;49.050;8.530;2023-05-10T09:35:12;99246.56;;;14.44
70389;BMP280;58659;49.050;8.530;2023-05-10T09:37:43;99279.00;;;14.68
70389;BMP280;58659;49.050;8.530;2023-05-10T09:40:29;99324.28;;;14.83
70389;BMP280;58659;49.050;8.530;2023-05-10T09:43:06;99362.72;;;14.69
70389;BMP280;58659;49.050;8.530;2023-05-10T09:45:33;99356.13;;;14.51
70389;BMP280;58659;49.050;8.530;2023-05-10T09:48:00;99353.53;;;14.40
70389;BMP280;58659;49.050;8.530;2023-05-10T09:50:26;99353.19;;;14.35
70389;BMP280;58659;49.050;8.530;2023-05-10T09:52:58;99363.06;;;14.27
70389;BMP280;58659;49.050;8.530;2023-05-10T09:55:45;99379.06;;;14.43
70389;BMP280;58659;49.050;8.530;2023-05-10T09:58:12;99413.09;;;14.68
70389;BMP280;58659;49.050;8.530;2023-05-10T10:00:45;99416.56;;;15.02
70389;BMP280;58659;49.050;8.530;2023-05-10T10:03:14;99491.25;;;15.15
70389;BMP280;58659;49.050;8.530;2023-05-10T10:05:41;99543.13;;;15.15
70389;BMP280;58659;49.050;8.530;2023-05-10T10:08:07;99554.44;;;15.08
70389;BMP280;58659;49.050;8.530;2023-05-10T10:10:33;99553.66;;;15.11
70389;BMP280;58659;49.050;8.530;2023-05-10T10:12:58;99566.84;;;15.08
70389;BMP280;58659;49.050;8.530;2023-05-10T10:15:24;99557.75;;;15.19
70389;BMP280;58659;49.050;8.530;2023-05-10T10:17:51;99571.19;;;15.28
70389;BMP280;58659;49.050;8.530;2023-05-10T10:20:18;99570.09;;;15.26
70389;BMP280;58659;49.050;8.530;2023-05-10T10:22:43;99581.41;;;15.19
70389;BMP280;58659;49.050;8.530;2023-05-10T10:25:15;99563.63;;;15.38
70389;BMP280;58659;49.050;8.530;2023-05-10T10:30:30;99561.56;;;15.97
70389;BMP280;58659;49.050;8.530;2023-05-10T10:35:25;99559.19;;;16.06
70389;BMP280;58659;49.050;8.530;2023-05-10T10:37:51;99549.94;;;16.28
70389;BMP280;58659;49.050;8.530;2023-05-10T10:42:55;99570.38;;;16.17
70389;BMP280;58659;49.050;8.530;2023-05-10T10:45:21;99601.41;;;16.02
70389;BMP280;58659;49.050;8.530;2023-05-10T10:47:47;99571.97;;;16.11
70389;BMP280;58659;49.050;8.530;2023-05-10T10:50:13;99591.34;;;16.27
70389;BMP280;58659;49.050;8.530;2023-05-10T10:52:42;99601.00;;;16.37
70389;BMP280;58659;49.050;8.530;2023-05-10T10:55:08;99590.50;;;16.94
70389;BMP280;58659;49.050;8.530;2023-05-10T11:02:48;99617.38;;;17.59
70389;BMP280;58659;49.050;8.530;2023-05-10T11:07:59;99619.94;;;18.05
70389;BMP280;58659;49.050;8.530;2023-05-10T11:10:25;99625.25;;;18.25
70389;BMP280;58659;49.050;8.530;2023-05-10T11:13:05;99631.41;;;18.18
70389;BMP280;58659;49.050;8.530;2023-05-10T11:15:32;99628.63;;;18.06
70389;BMP280;58659;49.050;8.530;2023-05-10T11:17:58;99632.34;;;18.28
70389;BMP280;58659;49.050;8.530;2023-05-10T11:20:27;99631.31;;;18.42
70389;BMP280;58659;49.050;8.530;2023-05-10T11:23:10;99630.50;;;18.05
70389;BMP280;58659;49.050;8.530;2023-05-10T11:25:44;99636.28;;;18.40
70389;BMP280;58659;49.050;8.530;2023-05-10T11:28:10;99646.09;;;18.59
70389;BMP280;58659;49.050;8.530;2023-05-10T11:30:38;99635.91;;;18.38
70389;BMP280;58659;49.050;8.530;2023-05-10T11:33:05;99636.94;;;18.04
70389;BMP280;58659;49.050;8.530;2023-05-10T11:35:30;99635.72;;;18.28
70389;BMP280;58659;49.050;8.530;2023-05-10T11:37:55;99647.19;;;18.42
70389;BMP280;58659;49.050;8.530;2023-05-10T11:40:22;99638.59;;;18.18
70389;BMP280;58659;49.050;8.530;2023-05-10T11:42:50;99645.97;;;18.26
70389;BMP280;58659;49.050;8.530;2023-05-10T11:45:15;99643.97;;;17.91
70389;BMP280;58659;49.050;8.530;2023-05-10T11:47:40;99651.25;;;17.87
70389;BMP280;58659;49.050;8.530;2023-05-10T11:50:08;99645.84;;;17.94
70389;BMP280;58659;49.050;8.530;2023-05-10T11:52:37;99651.19;;;18.10
70389;BMP280;58659;49.050;8.530;2023-05-10T11:55:03;99659.47;;;18.12
70389;BMP280;58659;49.050;8.530;2023-05-10T11:57:28;99643.09;;;17.55
70389;BMP280;58659;49.050;8.530;2023-05-10T11:59:54;99651.06;;;17.01
70389;BMP280;58659;49.050;8.530;2023-05-10T12:02:21;99658.97;;;16.71
70389;BMP280;58659;49.050;8.530;2023-05-10T12:04:46;99657.28;;;16.58
70389;BMP280;58659;49.050;8.530;2023-05-10T12:07:12;99654.34;;;16.52
70389;BMP280;58659;49.050;8.530;2023-05-10T12:09:42;99664.53;;;16.50
70389;BMP280;58659;49.050;8.530;2023-05-10T12:12:08;99663.06;;;16.45
70389;BMP280;58659;49.050;8.530;2023-05-10T12:14:36;99651.69;;;16.52
70389;BMP280;58659;49.050;8.530;2023-05-10T12:17:02;99666.16;;;16.37
70389;BMP280;58659;49.050;8.530;2023-05-10T12:19:27;99665.47;;;16.33
70389;BMP280;58659;49.050;8.530;2023-05-10T12:21:52;99672.56;;;16.36
70389;BMP280;58659;49.050;8.530;2023-05-10T12:24:18;99666.31;;;16.60
70389;BMP280;58659;49.050;8.530;2023-05-10T12:26:45;99664.91;;;16.82
70389;BMP280;58659;49.050;8.530;2023-05-10T12:29:18;99680.94;;;16.95
70389;BMP280;58659;49.050;8.530;2023-05-10T12:31:53;99673.13;;;17.15
70389;BMP280;58659;49.050;8.530;2023-05-10T12:34:32;99672.91;;;16.75
70389;BMP280;58659;49.050;8.530;2023-05-10T12:36:58;99679.13;;;16.58
70389;BMP280;58659;49.050;8.530;2023-05-10T12:39:24;99666.31;;;16.60
70389;BMP280;58659;49.050;8.530;2023-05-10T12:41:50;99672.97;;;16.98
70389;BMP280;58659;49.050;8.530;2023-05-10T12:44:15;99662.22;;;17.12
70389;BMP280;58659;49.050;8.530;2023-05-10T12:46:41;99658.53;;;17.33
70389;BMP280;58659;49.050;8.530;2023-05-10T12:49:06;99673.72;;;17.26
70389;BMP280;58659;49.050;8.530;2023-05-10T12:51:31;99677.50;;;17.25
70389;BMP280;58659;49.050;8.530;2023-05-10T12:53:56;99669.75;;;17.41
70389;BMP280;58659;49.050;8.530;2023-05-10T12:56:22;99662.09;;;17.46
70389;BMP280;58659;49.050;8.530;2023-05-10T12:58:47;99667.22;;;17.57
70389;BMP280;58659;49.050;8.530;2023-05-10T13:01:13;99668.88;;;17.70
70389;BMP280;58659;49.050;8.530;2023-05-10T13:03:39;99653.84;;;17.44
70389;BMP280;58659;49.050;8.530;2023-05-10T13:06:04;99653.00;;;17.51
70389;BMP280;58659;49.050;8.530;2023-05-10T13:08:31;99659.41;;;17.73
70389;BMP280;58659;49.050;8.530;2023-05-10T13:11:01;99657.00;;;17.82
70389;BMP280;58659;49.050;8.530;2023-05-10T13:13:27;99652.22;;;18.16
70389;BMP280;58659;49.050;8.530;2023-05-10T13:15:52;99654.44;;;18.38
70389;BMP280;58659;49.050;8.530;2023-05-10T13:18:17;99657.84;;;18.18
70389;BMP280;58659;49.050;8.530;2023-05-10T13:20:43;99652.94;;;17.97
70389;BMP280;58659;49.050;8.530;2023-05-10T13:23:09;99639.94;;;18.06
70389;BMP280;58659;49.050;8.530;2023-05-10T13:25:35;99650.09;;;18.27
70389;BMP280;58659;49.050;8.530;2023-05-10T13:28:01;99647.13;;;18.25
70389;BMP280;58659;49.050;8.530;2023-05-10T13:30:26;99645.44;;;18.15
70389;BMP280;58659;49.050;8.530;2023-05-10T13:32:52;99653.91;;;18.07
70389;BMP280;58659;49.050;8.530;2023-05-10T13:35:17;99637.84;;;17.98
70389;BMP280;58659;49.050;8.530;2023-05-10T13:37:42;99655.72;;;18.10
70389;BMP280;58659;49.050;8.530;2023-05-10T13:40:08;99639.53;;;18.08
70389;BMP280;58659;49.050;8.530;2023-05-10T13:42:34;99639.19;;;18.06
70389;BMP280;58659;49.050;8.530;2023-05-10T13:45:00;99646.44;;;18.21
70389;BMP280;58659;49.050;8.530;2023-05-10T13:47:26;99644.59;;;18.38
70389;BMP280;58659;49.050;8.530;2023-05-10T13:49:52;99646.00;;;18.62
70389;BMP280;58659;49.050;8.530;2023-05-10T13:52:17;99643.56;;;18.52
70389;BMP280;58659;49.050;8.530;2023-05-10T13:54:43;99637.50;;;18.55
70389;BMP280;58659;49.050;8.530;2023-05-10T13:57:09;99630.97;;;18.59
70389;BMP280;58659;49.050;8.530;2023-05-10T13:59:50;99616.50;;;18.64
70389;BMP280;58659;49.050;8.530;2023-05-10T14:02:34;99627.16;;;18.96
70389;BMP280;58659;49.050;8.530;2023-05-10T14:08:01;99621.22;;;19.53
70389;BMP280;58659;49.050;8.530;2023-05-10T14:10:28;99614.28;;;19.11
70389;BMP280;58659;49.050;8.530;2023-05-10T14:12:54;99613.19;;;18.92
70389;BMP280;58659;49.050;8.530;2023-05-10T14:15:21;99630.03;;;19.18
70389;BMP280;58659;49.050;8.530;2023-05-10T14:17:47;99617.09;;;19.20
70389;BMP280;58659;49.050;8.530;2023-05-10T14:20:15;99612.72;;;18.81
70389;BMP280;58659;49.050;8.530;2023-05-10T14:22:42;99610.28;;;18.54
70389;BMP280;58659;49.050;8.530;2023-05-10T14:25:11;99627.31;;;18.53
70389;BMP280;58659;49.050;8.530;2023-05-10T14:27:44;99611.22;;;18.64
70389;BMP280;58659;49.050;8.530;2023-05-10T14:33:06;99609.56;;;18.14
70389;BMP280;58659;49.050;8.530;2023-05-10T14:35:32;99621.91;;;18.01
70389;BMP280;58659;49.050;8.530;2023-05-10T14:37:58;99611.63;;;17.64
70389;BMP280;58659;49.050;8.530;2023-05-10T14:40:23;99612.31;;;17.68
70389;BMP280;58659;49.050;8.530;2023-05-10T14:42:50;99627.59;;;17.80
70389;BMP280;58659;49.050;8.530;2023-05-10T14:45:15;99622.50;;;17.66
70389;BMP280;58659;49.050;8.530;2023-05-10T14:47:41;99625.63;;;17.61
70389;BMP280;58659;49.050;8.530;2023-05-10T14:50:07;99623.91;;;17.74
70389;BMP280;58659;49.050;8.530;2023-05-10T14:52:32;99625.81;;;17.73